createdAt,value
2022-11-23T00:02:31.087Z,15.19
2022-11-23T00:05:19.946Z,15.22
2022-11-23T00:08:09.095Z,15.24
2022-11-23T00:10:51.230Z,15.17
2022-11-23T00:13:39.950Z,15.13
2022-11-23T00:16:33.360Z,15.05
2022-11-23T00:19:15.081Z,15.04
2022-11-23T00:22:04.547Z,14.93
2022-11-23T00:24:59.208Z,14.91
2022-11-23T00:27:41.277Z,14.87
2022-11-23T00:30:31.060Z,14.97
2022-11-23T00:33:20.099Z,14.96
2022-11-23T00:36:22.980Z,14.83
2022-11-23T00:39:08.412Z,14.78
2022-11-23T00:41:57.996Z,14.77
2022-11-23T00:44:40.283Z,14.70
2022-11-23T00:47:28.989Z,14.59
2022-11-23T00:50:19.323Z,14.58
2022-11-23T00:53:00.950Z,14.44
2022-11-23T00:55:59.458Z,14.46
2022-11-23T00:58:42.015Z,14.41
2022-11-23T01:01:26.810Z,14.42
2022-11-23T01:04:19.958Z,14.51
2022-11-23T01:07:13.025Z,14.52
2022-11-23T01:09:55.286Z,14.48
2022-11-23T01:12:43.956Z,14.35
2022-11-23T01:15:26.377Z,14.16
2022-11-23T01:18:15.058Z,14.01
2022-11-23T01:20:57.804Z,14.09
2022-11-23T01:23:46.946Z,14.06
2022-11-23T01:26:36.336Z,13.84
2022-11-23T01:29:19.067Z,13.48
2022-11-23T01:32:07.979Z,13.54
2022-11-23T01:34:56.970Z,13.35
2022-11-23T01:37:46.083Z,13.58
2022-11-23T01:40:28.473Z,13.54
2022-11-23T01:43:24.087Z,13.71
2022-11-23T01:46:08.308Z,13.83
2022-11-23T01:49:07.079Z,13.86
2022-11-23T01:51:52.421Z,13.85
2022-11-23T01:54:52.012Z,14.10
2022-11-23T01:57:41.399Z,14.09
2022-11-23T02:00:29.941Z,14.15
2022-11-23T02:03:14.461Z,14.15
2022-11-23T02:06:09.582Z,14.18
2022-11-23T02:08:52.333Z,14.20
2022-11-23T02:11:41.074Z,14.35
2022-11-23T02:14:23.707Z,14.46
2022-11-23T02:17:14.014Z,14.43
2022-11-23T02:20:09.977Z,14.30
2022-11-23T02:23:30.944Z,14.51
2022-11-23T02:26:43.043Z,14.75
2022-11-23T02:29:36.003Z,14.84
2022-11-23T02:32:25.061Z,14.95
2022-11-23T02:35:14.043Z,15.17
2022-11-23T02:38:05.036Z,15.18
2022-11-23T02:40:47.625Z,15.20
2022-11-23T02:43:38.055Z,15.36
2022-11-23T02:46:27.009Z,15.51
2022-11-23T02:49:09.248Z,15.66
2022-11-23T02:51:58.065Z,15.72
2022-11-23T02:54:40.277Z,15.85
2022-11-23T02:57:29.126Z,16.06
2022-11-23T03:00:13.468Z,16.21
2022-11-23T03:03:03.106Z,16.39
2022-11-23T03:05:46.312Z,16.49
2022-11-23T03:08:35.008Z,16.59
2022-11-23T03:11:17.315Z,16.75
2022-11-23T03:14:06.039Z,17.03
2022-11-23T03:16:58.368Z,17.31
2022-11-23T03:19:53.062Z,17.78
2022-11-23T03:22:37.449Z,17.99
2022-11-23T03:25:27.992Z,18.31
2022-11-23T03:28:19.044Z,18.52
2022-11-23T03:31:01.377Z,19.07
2022-11-23T03:33:51.973Z,19.47
2022-11-23T03:36:42.009Z,19.88
2022-11-23T03:39:31.180Z,20.30
2022-11-23T03:42:40.101Z,20.95
2022-11-23T03:45:22.428Z,21.45
2022-11-23T03:48:11.052Z,22.26
2022-11-23T03:50:54.365Z,22.77
2022-11-23T03:53:43.913Z,23.10
2022-11-23T03:56:26.380Z,23.59
2022-11-23T03:59:15.904Z,24.03
2022-11-23T04:01:59.378Z,24.29
2022-11-23T04:04:51.893Z,24.41
2022-11-23T04:07:58.407Z,24.54
2022-11-23T04:10:47.046Z,24.76
2022-11-23T04:13:38.976Z,25.24
2022-11-23T04:16:29.040Z,25.76
2022-11-23T04:19:11.237Z,25.77
2022-11-23T04:22:00.048Z,25.62
2022-11-23T04:25:00.833Z,26.05
2022-11-23T04:27:50.049Z,26.15
2022-11-23T04:30:33.324Z,26.44
2022-11-23T04:33:21.936Z,26.12
2022-11-23T04:36:11.913Z,26.21
2022-11-23T04:39:01.299Z,26.12
2022-11-23T04:41:51.898Z,25.54
2022-11-23T04:44:48.048Z,25.48
2022-11-23T04:47:37.318Z,25.44
2022-11-23T04:50:21.947Z,25.29
2022-11-23T04:53:12.301Z,25.23
2022-11-23T04:55:55.982Z,25.30
2022-11-23T04:58:49.328Z,25.41
2022-11-23T05:01:32.958Z,25.56
2022-11-23T05:04:51.144Z,25.49
2022-11-23T05:07:44.248Z,24.78
2022-11-23T05:10:41.896Z,24.98
2022-11-23T05:13:24.795Z,24.73
2022-11-23T05:16:14.064Z,24.91
2022-11-23T05:18:57.169Z,24.94
2022-11-23T05:21:47.929Z,25.00
2022-11-23T05:24:44.911Z,25.06
2022-11-23T05:27:36.916Z,25.81
2022-11-23T05:30:20.258Z,26.05
2022-11-23T05:33:10.912Z,25.55
2022-11-23T05:35:54.258Z,25.26
2022-11-23T05:38:50.914Z,25.24
2022-11-23T05:41:45.977Z,25.09
2022-11-23T05:44:49.169Z,25.74
2022-11-23T05:47:44.940Z,25.56
2022-11-23T05:50:35.271Z,26.01
2022-11-23T05:53:53.129Z,25.97
2022-11-23T05:57:06.589Z,25.75
2022-11-23T05:59:56.929Z,26.20
2022-11-23T06:02:54.927Z,26.85
2022-11-23T06:05:40.491Z,26.91
2022-11-23T06:08:29.092Z,26.55
2022-11-23T06:11:13.484Z,26.59
2022-11-23T06:14:03.053Z,26.35
2022-11-23T06:16:45.358Z,26.25
2022-11-23T06:19:54.053Z,26.38
2022-11-23T06:22:36.244Z,26.00
2022-11-23T06:25:30.927Z,26.31
2022-11-23T06:28:30.249Z,26.51
2022-11-23T06:31:20.908Z,26.35
2022-11-23T06:34:10.277Z,26.65
2022-11-23T06:36:52.950Z,26.78
2022-11-23T06:39:42.332Z,26.88
2022-11-23T06:42:38.431Z,26.74
2022-11-23T06:45:34.235Z,26.97
2022-11-23T06:48:27.032Z,26.63
2022-11-23T06:51:10.214Z,26.92
2022-11-23T06:54:01.035Z,26.97
2022-11-23T06:56:43.217Z,27.08
2022-11-23T06:59:32.181Z,27.36
2022-11-23T07:02:21.902Z,27.04
2022-11-23T07:05:06.318Z,26.75
2022-11-23T07:07:56.031Z,26.62
2022-11-23T07:10:38.279Z,26.67
2022-11-23T07:13:31.009Z,26.95
2022-11-23T07:16:20.101Z,26.84
2022-11-23T07:19:08.298Z,26.38
2022-11-23T07:21:51.049Z,26.46
2022-11-23T07:24:39.517Z,26.68
2022-11-23T07:27:32.033Z,26.55
2022-11-23T07:30:28.976Z,26.43
2022-11-23T07:33:18.031Z,26.66
2022-11-23T07:36:10.585Z,26.63
2022-11-23T07:38:53.966Z,26.63
2022-11-23T07:41:43.033Z,26.54
2022-11-23T07:44:44.032Z,26.94
2022-11-23T07:47:32.295Z,26.60
2022-11-23T07:50:17.042Z,26.70
2022-11-23T07:53:06.275Z,27.08
2022-11-23T07:55:48.062Z,27.09
2022-11-23T07:58:30.203Z,26.89
2022-11-23T08:01:20.051Z,26.96
2022-11-23T08:04:02.210Z,26.72
2022-11-23T08:06:50.883Z,26.86
2022-11-23T08:09:39.894Z,26.93
2022-11-23T08:12:22.763Z,26.89
2022-11-23T08:15:11.946Z,27.14
2022-11-23T08:17:54.756Z,26.87
2022-11-23T08:20:44.048Z,26.68
2022-11-23T08:23:26.797Z,26.71
2022-11-23T08:26:15.926Z,27.04
2022-11-23T08:29:04.991Z,26.93
2022-11-23T08:31:53.873Z,26.92
2022-11-23T08:34:43.039Z,27.01
2022-11-23T08:37:25.261Z,26.73
2022-11-23T08:40:13.994Z,26.73
2022-11-23T08:42:56.223Z,27.05
2022-11-23T08:45:44.920Z,26.74
2022-11-23T08:48:33.892Z,26.62
2022-11-23T08:51:22.908Z,26.75
2022-11-23T08:54:12.185Z,27.03
2022-11-23T08:57:01.035Z,26.94
2022-11-23T08:59:50.329Z,26.72
2022-11-23T09:02:34.010Z,26.48
2022-11-23T09:05:22.941Z,26.81
2022-11-23T09:08:08.327Z,26.85
2022-11-23T09:10:57.085Z,26.94
2022-11-23T09:13:40.299Z,26.85
2022-11-23T09:16:33.868Z,27.02
2022-11-23T09:19:18.288Z,26.63
2022-11-23T09:22:07.054Z,26.48
2022-11-23T09:24:56.052Z,26.66
2022-11-23T09:27:44.257Z,26.96
2022-11-23T09:30:25.956Z,27.05
2022-11-23T09:33:15.948Z,26.73
2022-11-23T09:36:15.935Z,26.44
2022-11-23T09:39:04.888Z,26.26
2022-11-23T09:42:12.026Z,26.75
2022-11-23T09:44:54.181Z,26.81
2022-11-23T09:48:00.988Z,26.70
2022-11-23T09:50:59.275Z,26.46
2022-11-23T09:53:57.042Z,26.51
2022-11-23T09:56:41.835Z,26.54
2022-11-23T09:59:49.967Z,26.56
2022-11-23T10:02:43.975Z,26.55
2022-11-23T10:05:30.257Z,26.56
2022-11-23T10:08:38.887Z,26.33
2022-11-23T10:11:33.287Z,26.16
2022-11-23T10:14:32.210Z,26.00
2022-11-23T10:17:31.302Z,26.19
2022-11-23T10:20:48.032Z,26.23
2022-11-23T10:24:03.316Z,26.09
2022-11-23T10:27:07.063Z,26.08
2022-11-23T10:29:57.684Z,26.01
2022-11-23T10:32:55.017Z,26.05
2022-11-23T10:35:44.260Z,25.96
2022-11-23T10:38:28.957Z,25.86
2022-11-23T10:41:21.335Z,25.82
2022-11-23T10:44:32.371Z,25.73
2022-11-23T10:47:55.974Z,25.64
2022-11-23T10:50:42.277Z,25.57
2022-11-23T10:53:33.996Z,25.41
2022-11-23T10:56:21.260Z,25.43
2022-11-23T10:59:10.056Z,25.31
2022-11-23T11:02:11.288Z,25.21
2022-11-23T11:05:20.072Z,25.23
2022-11-23T11:08:09.251Z,25.22
2022-11-23T11:11:10.978Z,25.07
2022-11-23T11:14:02.997Z,24.76
2022-11-23T11:16:59.122Z,24.59
2022-11-23T11:19:50.044Z,24.34
2022-11-23T11:22:37.518Z,24.17
2022-11-23T11:25:45.897Z,24.26
2022-11-23T11:28:44.861Z,24.13
2022-11-23T11:31:47.944Z,23.96
2022-11-23T11:34:48.162Z,23.79
2022-11-23T11:37:52.041Z,23.68
2022-11-23T11:40:54.941Z,23.59
2022-11-23T11:43:50.033Z,23.52
2022-11-23T11:46:39.471Z,23.31
2022-11-23T11:49:38.996Z,23.18
2022-11-23T11:52:28.726Z,23.02
2022-11-23T11:55:33.065Z,22.84
2022-11-23T11:58:18.216Z,22.67
2022-11-23T12:01:43.007Z,22.49
2022-11-23T12:05:06.997Z,22.37
2022-11-23T12:08:21.031Z,22.22
2022-11-23T12:11:07.767Z,22.12
2022-11-23T12:13:57.957Z,21.97
2022-11-23T12:20:21.423Z,21.76
2022-11-23T12:23:30.973Z,21.67
2022-11-23T12:26:53.256Z,21.58
2022-11-23T12:29:54.974Z,21.45
2022-11-23T12:33:07.010Z,21.41
2022-11-23T12:36:07.286Z,21.36
2022-11-23T12:39:10.997Z,21.35
2022-11-23T12:41:57.482Z,21.28
2022-11-23T12:45:00.976Z,21.17
2022-11-23T12:47:58.456Z,21.12
2022-11-23T12:50:58.006Z,21.06
2022-11-23T12:54:12.450Z,20.91
2022-11-23T12:57:05.991Z,20.87
2022-11-23T12:59:57.284Z,20.83
2022-11-23T13:03:05.965Z,20.82
2022-11-23T13:06:28.965Z,20.71
2022-11-23T13:09:30.021Z,20.63
2022-11-23T13:12:25.015Z,20.50
2022-11-23T13:15:43.712Z,20.52
2022-11-23T13:19:09.962Z,20.47
2022-11-23T13:21:59.337Z,20.40
2022-11-23T13:24:45.975Z,20.26
2022-11-23T13:27:51.271Z,20.32
2022-11-23T13:31:13.261Z,20.24
2022-11-23T13:33:47.323Z,20.25
2022-11-23T13:37:10.551Z,20.19
2022-11-23T13:39:53.298Z,20.23
2022-11-23T13:42:45.924Z,20.13
2022-11-23T13:45:47.006Z,20.12
2022-11-23T13:51:41.028Z,20.05
2022-11-23T13:54:31.647Z,19.99
2022-11-23T13:57:21.951Z,19.99
2022-11-23T14:00:50.087Z,19.95
2022-11-23T14:03:51.430Z,19.99
2022-11-23T14:06:52.023Z,19.98
2022-11-23T14:09:53.265Z,19.90
2022-11-23T14:12:49.960Z,19.85
2022-11-23T14:15:43.961Z,19.83
2022-11-23T14:18:44.390Z,19.78
2022-11-23T14:21:49.057Z,19.99
2022-11-23T14:24:52.376Z,19.73
2022-11-23T14:28:05.979Z,19.62
2022-11-23T14:30:57.327Z,19.52
2022-11-23T14:33:52.059Z,19.35
2022-11-23T14:36:43.304Z,19.33
2022-11-23T14:40:00.053Z,19.32
2022-11-23T14:42:54.321Z,19.28
2022-11-23T14:45:42.065Z,19.22
2022-11-23T14:48:35.249Z,19.19
2022-11-23T14:51:39.053Z,19.14
2022-11-23T14:54:27.533Z,19.19
2022-11-23T14:57:11.935Z,19.05
2022-11-23T15:00:11.818Z,19.00
2022-11-23T15:03:07.242Z,18.98
2022-11-23T15:06:22.382Z,18.92
2022-11-23T15:09:42.041Z,18.88
2022-11-23T15:12:34.345Z,18.82
2022-11-23T15:15:41.144Z,18.78
2022-11-23T15:18:41.379Z,18.73
2022-11-23T15:21:33.006Z,18.70
2022-11-23T15:24:27.185Z,18.61
2022-11-23T15:27:20.855Z,18.64
2022-11-23T15:30:10.030Z,18.73
2022-11-23T15:32:53.928Z,18.59
2022-11-23T15:35:44.868Z,18.56
2022-11-23T15:38:28.282Z,18.52
2022-11-23T15:41:16.926Z,18.55
2022-11-23T15:44:07.273Z,18.49
2022-11-23T15:46:56.941Z,18.42
2022-11-23T15:49:39.346Z,18.42
2022-11-23T15:52:28.949Z,18.46
2022-11-23T15:55:16.907Z,18.39
2022-11-23T15:58:07.913Z,18.34
2022-11-23T16:01:05.453Z,18.29
2022-11-23T16:03:59.880Z,18.26
2022-11-23T16:06:56.847Z,18.15
2022-11-23T16:09:52.703Z,18.16
2022-11-23T16:12:41.872Z,18.15
2022-11-23T16:15:38.814Z,18.15
2022-11-23T16:18:39.987Z,18.05
2022-11-23T16:21:27.844Z,18.03
2022-11-23T16:24:28.434Z,18.01
2022-11-23T16:27:23.244Z,17.97
2022-11-23T16:30:06.018Z,17.90
2022-11-23T16:32:54.300Z,17.92
2022-11-23T16:35:36.946Z,17.87
2022-11-23T16:38:19.335Z,17.84
2022-11-23T16:41:07.976Z,17.77
2022-11-23T16:43:59.009Z,17.78
2022-11-23T16:46:47.967Z,17.68
2022-11-23T16:49:37.003Z,17.73
2022-11-23T16:52:19.285Z,17.60
2022-11-23T16:55:07.868Z,17.61
2022-11-23T16:58:00.999Z,17.55
2022-11-23T17:00:49.876Z,17.56
2022-11-23T17:03:32.327Z,17.56
2022-11-23T17:06:22.888Z,17.57
2022-11-23T17:09:08.087Z,17.51
2022-11-23T17:11:58.888Z,17.46
2022-11-23T17:14:52.983Z,17.52
2022-11-23T17:17:35.258Z,17.49
2022-11-23T17:20:27.920Z,17.41
2022-11-23T17:23:10.168Z,17.38
2022-11-23T17:25:58.976Z,17.37
2022-11-23T17:28:47.216Z,17.39
2022-11-23T17:31:29.960Z,17.26
2022-11-23T17:34:19.577Z,17.33
2022-11-23T17:37:02.012Z,17.27
2022-11-23T17:39:44.325Z,17.31
2022-11-23T17:42:33.859Z,17.18
2022-11-23T17:45:16.443Z,17.29
2022-11-23T17:48:04.853Z,17.22
2022-11-23T17:50:53.215Z,17.33
2022-11-23T17:53:36.018Z,17.18
2022-11-23T17:56:29.633Z,17.24
2022-11-23T17:59:20.038Z,17.09
2022-11-23T18:02:08.274Z,17.11
2022-11-23T18:04:51.042Z,17.17
2022-11-23T18:07:39.354Z,17.08
2022-11-23T18:10:21.971Z,17.05
2022-11-23T18:13:12.763Z,16.95
2022-11-23T18:15:55.953Z,16.89
2022-11-23T18:18:45.380Z,16.91
2022-11-23T18:21:27.881Z,16.92
2022-11-23T18:24:17.320Z,16.75
2022-11-23T18:27:12.003Z,16.71
2022-11-23T18:30:01.276Z,16.78
2022-11-23T18:32:43.867Z,16.73
2022-11-23T18:35:32.850Z,16.82
2022-11-23T18:38:15.308Z,16.82
2022-11-23T18:41:03.836Z,16.73
2022-11-23T18:43:46.254Z,16.66
2022-11-23T18:46:36.923Z,16.63
2022-11-23T18:49:20.320Z,16.56
2022-11-23T18:52:08.977Z,16.59
2022-11-23T18:54:51.396Z,16.58
2022-11-23T18:57:39.970Z,16.60
2022-11-23T19:00:22.506Z,16.53
2022-11-23T19:03:11.950Z,16.50
2022-11-23T19:06:01.050Z,16.53
2022-11-23T19:08:48.154Z,16.39
2022-11-23T19:11:39.929Z,16.46
2022-11-23T19:14:22.168Z,16.41
2022-11-23T19:17:10.820Z,16.37
2022-11-23T19:19:59.830Z,16.45
2022-11-23T19:22:43.264Z,16.42
2022-11-23T19:25:32.918Z,16.49
2022-11-23T19:28:21.170Z,16.29
2022-11-23T19:31:04.013Z,16.33
2022-11-23T19:33:53.879Z,16.34
2022-11-23T19:36:44.912Z,16.28
2022-11-23T19:39:27.153Z,16.21
2022-11-23T19:42:15.932Z,16.31
2022-11-23T19:45:04.325Z,16.28
2022-11-23T19:47:46.920Z,16.28
2022-11-23T19:50:29.358Z,16.35
2022-11-23T19:53:17.926Z,16.24
2022-11-23T19:56:09.233Z,16.23
2022-11-23T19:58:58.860Z,16.32
2022-11-23T20:01:48.090Z,16.36
2022-11-23T20:04:30.479Z,16.39
2022-11-23T20:07:21.108Z,16.44
2022-11-23T20:10:03.234Z,16.48
2022-11-23T20:12:51.950Z,16.50
2022-11-23T20:15:34.234Z,16.52
2022-11-23T20:18:29.553Z,16.48
2022-11-23T20:21:12.978Z,16.43
2022-11-23T20:24:13.245Z,16.31
2022-11-23T20:27:07.785Z,16.29
2022-11-23T20:29:56.981Z,16.23
2022-11-23T20:32:39.273Z,16.24
2022-11-23T20:35:28.294Z,16.23
2022-11-23T20:38:11.392Z,16.22
2022-11-23T20:41:00.964Z,16.23
2022-11-23T20:43:43.215Z,16.21
2022-11-23T20:49:35.462Z,16.17
2022-11-23T20:52:23.816Z,16.15
2022-11-23T20:55:06.385Z,16.08
2022-11-23T20:57:54.917Z,16.07
2022-11-23T21:00:48.653Z,15.98
2022-11-23T21:03:42.287Z,16.03
2022-11-23T21:06:24.982Z,16.02
2022-11-23T21:09:13.335Z,16.03
2022-11-23T21:12:13.813Z,15.94
2022-11-23T21:15:02.213Z,16.04
2022-11-23T21:17:43.863Z,15.84
2022-11-23T21:20:36.421Z,15.79
2022-11-23T21:23:18.823Z,15.85
2022-11-23T21:26:07.681Z,15.91
2022-11-23T21:28:56.951Z,15.84
2022-11-23T21:31:47.359Z,15.91
2022-11-23T21:34:34.283Z,15.86
2022-11-23T21:37:23.322Z,15.93
2022-11-23T21:40:04.857Z,15.94
2022-11-23T21:42:47.277Z,15.84
2022-11-23T21:45:36.121Z,15.92
2022-11-23T21:48:18.129Z,15.82
2022-11-23T21:51:26.899Z,15.85
2022-11-23T21:54:23.864Z,15.81
2022-11-23T21:57:12.201Z,15.81
2022-11-23T21:59:54.786Z,15.81
2022-11-23T22:02:47.134Z,16.00
2022-11-23T22:05:35.902Z,16.07
2022-11-23T22:08:31.385Z,16.06
2022-11-23T22:11:21.836Z,16.11
2022-11-23T22:14:16.000Z,16.25
2022-11-23T22:16:59.407Z,16.32
2022-11-23T22:19:47.845Z,16.42
2022-11-23T22:22:30.625Z,16.48
2022-11-23T22:25:19.976Z,16.52
2022-11-23T22:28:14.792Z,16.51
2022-11-23T22:31:03.947Z,16.58
2022-11-23T22:33:53.953Z,16.48
2022-11-23T22:36:42.237Z,16.51
2022-11-23T22:39:23.833Z,16.54
2022-11-23T22:42:13.455Z,16.52
2022-11-23T22:44:55.178Z,16.63
2022-11-23T22:47:37.283Z,16.67
2022-11-23T22:50:25.981Z,16.56
2022-11-23T22:53:08.106Z,16.45
2022-11-23T22:55:56.934Z,16.47
2022-11-23T22:58:45.648Z,16.46
2022-11-23T23:01:30.990Z,16.45
2022-11-23T23:04:20.237Z,16.45
2022-11-23T23:07:02.929Z,16.36
2022-11-23T23:09:51.205Z,16.29
2022-11-23T23:12:33.952Z,16.15
2022-11-23T23:15:22.267Z,16.11
2022-11-23T23:18:04.907Z,15.98
2022-11-23T23:20:53.208Z,16.00
2022-11-23T23:23:35.991Z,15.96
2022-11-23T23:26:20.554Z,15.91
2022-11-23T23:29:11.916Z,15.87
2022-11-23T23:31:54.209Z,15.70
2022-11-23T23:34:42.823Z,15.67
2022-11-23T23:37:32.240Z,15.62
2022-11-23T23:40:14.911Z,15.91
2022-11-23T23:43:05.201Z,15.93
2022-11-23T23:45:47.258Z,16.05
2022-11-23T23:48:34.805Z,16.20
2022-11-23T23:51:24.916Z,16.28
2022-11-23T23:54:07.386Z,16.28
2022-11-23T23:56:55.925Z,16.34
2022-11-23T23:59:45.237Z,16.46
